Time;durP1;ratioP1;P1;durP2;ratioP2;P2;SDS_P1;SDS_P2;PMS_P1;PMS_P2;Temp;Humidity;BMP_temperature;BMP_pressure;BME280_temperature;BME280_humidity;BME280_pressure;Samples;Min_cycle;Max_cycle;Signal;HPM_P1;HPM_P2
2022/01/18 00:00:28;;;;;;;6.80;2.93;;;3.60;99.90;;;;;;6286055;22;20034;-88
2022/01/18 00:03:02;;;;;;;8.57;3.47;;;3.60;99.90;;;;;;6285935;22;20006;-88
2022/01/18 00:05:28;;;;;;;7.83;3.40;;;3.50;99.90;;;;;;6285777;22;20000;-89
2022/01/18 00:07:57;;;;;;;8.00;3.20;;;3.70;99.90;;;;;;6285119;22;20077;-89
2022/01/18 00:10:29;;;;;;;9.17;3.10;;;3.70;99.90;;;;;;6286623;22;20034;-89
2022/01/18 00:18:51;;;;;;;7.60;2.93;;;3.70;99.90;;;;;;6257092;22;20007;-88
2022/01/18 00:21:28;;;;;;;9.57;3.10;;;3.70;99.90;;;;;;6284833;22;20094;-88
2022/01/18 00:24:03;;;;;;;8.40;3.67;;;3.70;99.90;;;;;;6285420;22;20008;-89
2022/01/18 00:26:41;;;;;;;8.33;3.23;;;3.70;99.90;;;;;;6287747;22;20068;-88
2022/01/18 00:29:23;;;;;;;9.60;3.20;;;3.70;99.90;;;;;;6287262;22;20006;-89
2022/01/18 00:34:47;;;;;;;5.33;2.30;;;3.60;99.90;;;;;;6288126;22;19941;-88
2022/01/18 00:37:33;;;;;;;9.60;3.20;;;3.70;99.90;;;;;;6287715;22;20039;-88
2022/01/18 00:40:04;;;;;;;6.83;3.20;;;3.60;99.90;;;;;;6287229;22;20079;-88
2022/01/18 00:42:45;;;;;;;5.80;2.93;;;3.70;99.90;;;;;;6261389;22;20003;-88
2022/01/18 00:45:19;;;;;;;6.43;2.47;;;3.70;99.90;;;;;;6287690;22;20000;-88
2022/01/18 00:51:10;;;;;;;7.17;3.40;;;3.70;99.90;;;;;;6288037;22;20018;-88
2022/01/18 00:54:01;;;;;;;;;;;;;;;;;;;;;
2022/01/18 00:56:40;;;;;;;9.90;3.20;;;3.80;99.90;;;;;;6288389;22;20016;-88
2022/01/18 00:59:06;;;;;;;8.07;3.20;;;3.70;99.90;;;;;;6288930;22;20003;-88
2022/01/18 01:01:34;;;;;;;9.17;3.70;;;3.80;99.90;;;;;;6287389;22;20004;-89
2022/01/18 01:04:03;;;;;;;8.30;3.00;;;3.70;99.90;;;;;;6262587;22;20031;-88
2022/01/18 01:06:42;;;;;;;7.27;3.17;;;3.70;99.90;;;;;;6287900;22;20022;-88
2022/01/18 01:09:07;;;;;;;8.83;3.80;;;3.70;99.90;;;;;;6286270;22;20055;-88
2022/01/18 01:11:47;;;;;;;9.47;3.83;;;3.70;99.90;;;;;;6284929;22;20003;-88
2022/01/18 01:14:21;;;;;;;8.17;4.20;;;3.70;99.90;;;;;;6286671;22;20057;-88
2022/01/18 01:44:39;;;;;;;8.37;4.07;;;3.80;99.90;;;;;;6255925;23;20008;-89
2022/01/18 01:47:06;;;;;;;8.37;3.97;;;3.80;99.90;;;;;;6254534;23;20213;-89
2022/01/18 01:49:34;;;;;;;9.33;4.03;;;3.80;99.90;;;;;;6260194;22;20011;-89
2022/01/18 01:52:24;;;;;;;10.57;4.37;;;3.90;99.90;;;;;;6286657;22;20112;-89
2022/01/18 01:54:56;;;;;;;9.33;4.20;;;3.80;99.90;;;;;;6286605;22;20055;-89
2022/01/18 01:57:28;;;;;;;8.90;4.13;;;3.80;99.90;;;;;;6287298;22;20421;-89
2022/01/18 01:59:57;;;;;;;11.07;4.47;;;3.80;99.90;;;;;;6287489;22;20059;-89
2022/01/18 02:02:30;;;;;;;10.03;4.73;;;3.80;99.90;;;;;;6287444;22;20095;-88
2022/01/18 02:05:01;;;;;;;14.80;4.63;;;3.80;99.90;;;;;;6288241;22;20031;-89
2022/01/18 02:07:27;;;;;;;8.13;3.42;;;3.80;99.90;;;;;;6288483;22;20023;-89
2022/01/18 02:10:07;;;;;;;12.23;5.03;;;3.80;99.90;;;;;;6286732;22;20008;-89
2022/01/18 02:12:33;;;;;;;13.23;5.37;;;3.80;99.90;;;;;;6287613;22;20004;-89
2022/01/18 02:15:24;;;;;;;12.60;5.17;;;3.80;99.90;;;;;;6261098;22;20019;-89
2022/01/18 02:23:30;;;;;;;9.10;4.17;;;3.80;99.90;;;;;;6285651;22;20034;-89
2022/01/18 02:25:56;;;;;;;;;;;3.80;99.90;;;;;;6286256;22;20010;-89
2022/01/18 02:28:28;;;;;;;10.20;4.03;;;3.80;99.90;;;;;;6287638;22;19933;-89
2022/01/18 02:30:58;;;;;;;8.47;3.50;;;3.80;99.90;;;;;;6285047;22;20000;-89
2022/01/18 02:33:24;;;;;;;8.77;3.80;;;3.70;99.90;;;;;;6288257;22;20027;-89
2022/01/18 02:35:54;;;;;;;9.63;3.87;;;3.70;99.90;;;;;;6286651;22;20425;-89
2022/01/18 02:38:22;;;;;;;7.47;3.47;;;3.60;99.90;;;;;;6286603;22;20437;-88
2022/01/18 02:40:48;;;;;;;8.77;3.93;;;3.60;99.90;;;;;;6285972;22;20063;-88
2022/01/18 02:45:58;;;;;;;10.50;4.30;;;3.60;99.90;;;;;;6286196;22;20006;-89
2022/01/18 02:48:30;;;;;;;9.20;4.10;;;3.60;99.90;;;;;;6285105;22;20051;-88
2022/01/18 02:51:09;;;;;;;9.32;4.38;;;3.60;99.90;;;;;;6260285;22;20004;-89
2022/01/18 02:53:55;;;;;;;8.67;4.70;;;3.60;99.90;;;;;;6285199;22;20004;-89
2022/01/18 02:56:25;;;;;;;10.40;4.83;;;3.60;99.90;;;;;;6287999;22;20061;-90
2022/01/18 02:59:09;;;;;;;12.90;5.20;;;3.60;99.90;;;;;;6288769;22;20004;-89
2022/01/18 03:04:32;;;;;;;14.60;5.13;;;3.60;99.90;;;;;;6287574;22;20096;-88
2022/01/18 03:07:16;;;;;;;14.07;6.03;;;3.70;99.90;;;;;;6287509;22;20002;-89
2022/01/18 03:09:42;;;;;;;15.30;6.13;;;3.70;99.90;;;;;;6287607;22;20008;-88
2022/01/18 03:12:14;;;;;;;15.83;5.97;;;3.80;99.90;;;;;;6285166;22;20057;-89
2022/01/18 03:14:47;;;;;;;11.82;5.22;;;3.70;99.90;;;;;;6261160;22;19999;-89
2022/01/18 03:17:16;;;;;;;14.57;6.80;;;3.70;99.90;;;;;;6285555;22;20490;-88
2022/01/18 03:19:42;;;;;;;12.43;5.73;;;3.70;99.90;;;;;;6284117;22;20465;-88
2022/01/18 03:22:14;;;;;;;12.53;5.40;;;3.70;99.90;;;;;;6286644;22;19996;-89
2022/01/18 03:30:01;;;;;;;12.70;5.27;;;3.70;99.90;;;;;;6288265;22;20006;-89
2022/01/18 03:32:32;;;;;;;10.90;5.30;;;3.70;99.90;;;;;;6285858;22;20000;-88
2022/01/18 03:35:05;;;;;;;12.57;5.00;;;3.70;99.90;;;;;;6285603;22;20011;-88
2022/01/18 03:37:59;;;;;;;17.43;5.20;;;3.70;99.90;;;;;;6286373;22;20003;-89
2022/01/18 03:40:28;;;;;;;13.97;5.73;;;3.60;99.90;;;;;;6285177;22;20003;-89
2022/01/18 03:42:58;;;;;;;14.67;4.93;;;3.70;99.90;;;;;;6283121;22;20011;-89
2022/01/18 03:45:39;;;;;;;17.23;6.47;;;3.60;99.90;;;;;;6284188;22;20007;-88
2022/01/18 03:48:08;;;;;;;10.67;5.03;;;3.80;99.90;;;;;;6283109;22;20035;-88
2022/01/18 03:50:34;;;;;;;14.40;5.67;;;3.60;99.90;;;;;;6255937;22;20000;-88
2022/01/18 03:53:09;;;;;;;12.93;5.57;;;3.60;99.90;;;;;;6280684;22;20096;-89
2022/01/18 03:55:37;;;;;;;11.83;5.40;;;3.60;99.90;;;;;;6279620;22;20006;-88
2022/01/18 03:58:03;;;;;;;16.63;6.53;;;3.60;99.90;;;;;;6275875;22;20000;-88
2022/01/18 04:00:29;;;;;;;14.03;6.37;;;3.70;99.90;;;;;;6270655;22;20034;-88
2022/01/18 04:02:58;;;;;;;14.73;6.50;;;3.70;99.90;;;;;;6247283;22;20318;-89
2022/01/18 04:05:25;;;;;;;18.30;7.23;;;3.70;99.90;;;;;;6247161;22;20007;-88
2022/01/18 04:07:51;;;;;;;13.97;6.87;;;3.70;99.90;;;;;;6246932;22;20481;-88
2022/01/18 04:10:16;;;;;;;16.10;5.93;;;3.70;99.90;;;;;;6272451;22;20459;-88
2022/01/18 04:12:42;;;;;;;11.77;5.57;;;3.70;99.90;;;;;;6273692;22;20026;-88
2022/01/18 04:15:10;;;;;;;16.40;6.30;;;3.70;99.90;;;;;;6274018;22;20175;-88
2022/01/18 04:26:01;;;;;;;16.17;6.27;;;3.70;99.90;;;;;;6274073;22;20023;-88
2022/01/18 04:28:43;;;;;;;19.17;6.80;;;3.70;99.90;;;;;;6272873;22;20019;-88
2022/01/18 04:31:10;;;;;;;15.15;6.85;;;3.80;99.90;;;;;;6271885;22;20019;-88
2022/01/18 04:33:37;;;;;;;14.10;7.13;;;3.70;99.90;;;;;;6272472;22;20103;-88
2022/01/18 04:36:04;;;;;;;16.57;6.83;;;3.70;99.90;;;;;;6272192;22;20012;-88
2022/01/18 04:38:30;;;;;;;14.47;6.57;;;3.80;99.90;;;;;;6272180;22;20004;-88
2022/01/18 04:41:03;;;;;;;15.20;6.80;;;3.80;99.90;;;;;;6272323;22;20014;-88
2022/01/18 04:48:24;;;;;;;20.70;8.37;;;3.70;99.90;;;;;;6272392;22;20027;-89
2022/01/18 04:49:00;;;;;;;18.80;6.97;;;3.70;99.90;;;;;;6274463;22;20337;-88
2022/01/18 04:51:26;;;;;;;17.77;7.00;;;3.70;99.90;;;;;;6272334;22;20334;-88
2022/01/18 04:53:55;;;;;;;17.67;7.27;;;3.80;99.90;;;;;;6246508;22;20008;-88
2022/01/18 04:59:14;;;;;;;19.70;7.07;;;3.70;99.90;;;;;;6259008;22;20014;-88
2022/01/18 05:01:42;;;;;;;16.57;7.13;;;3.70;99.90;;;;;;6273876;22;20034;-88
2022/01/18 05:04:08;;;;;;;18.53;7.77;;;3.80;99.90;;;;;;6272000;22;20008;-88
2022/01/18 05:06:34;;;;;;;15.70;6.67;;;3.70;99.90;;;;;;6272202;22;20548;-88
2022/01/18 05:09:07;;;;;;;16.90;7.53;;;3.70;99.90;;;;;;6245792;22;20011;-88
2022/01/18 05:11:51;;;;;;;;;;;3.70;99.90;;;;;;6273550;22;20007;-89
2022/01/18 05:16:57;;;;;;;21.17;8.80;;;3.70;99.90;;;;;;6275664;22;20091;-89
2022/01/18 05:19:39;;;;;;;16.73;7.70;;;3.70;99.90;;;;;;6275183;22;20000;-88
2022/01/18 05:24:32;;;;;;;18.43;7.07;;;3.70;99.90;;;;;;6275373;22;20385;-88
2022/01/18 05:27:00;;;;;;;19.93;7.97;;;3.70;99.90;;;;;;6274289;22;20079;-88
2022/01/18 05:29:26;;;;;;;21.20;8.90;;;3.70;99.90;;;;;;6273512;22;20065;-88
2022/01/18 05:31:52;;;;;;;17.10;6.90;;;3.60;99.90;;;;;;6273419;22;20003;-88
2022/01/18 05:34:19;;;;;;;19.87;8.37;;;3.70;99.90;;;;;;6275029;22;20008;-88
2022/01/18 05:36:45;;;;;;;18.67;7.93;;;3.70;99.90;;;;;;6275583;22;20561;-88
2022/01/18 05:39:12;;;;;;;18.53;8.20;;;3.70;99.90;;;;;;6276042;22;20003;-87
2022/01/18 05:41:39;;;;;;;18.30;7.27;;;3.70;99.90;;;;;;6276015;22;20004;-88
2022/01/18 05:44:05;;;;;;;17.63;7.00;;;3.70;99.90;;;;;;6249169;22;20437;-88
2022/01/18 05:46:31;;;;;;;16.27;7.37;;;3.70;99.90;;;;;;6273669;22;20010;-87
2022/01/18 05:49:00;;;;;;;17.60;7.37;;;3.70;99.90;;;;;;6275732;22;20335;-88
2022/01/18 05:51:32;;;;;;;18.40;7.67;;;3.60;99.90;;;;;;6275306;22;20028;-89
2022/01/18 05:54:02;;;;;;;27.60;8.13;;;3.70;99.90;;;;;;6274379;22;20008;-89
2022/01/18 05:56:31;;;;;;;23.13;7.77;;;3.70;99.90;;;;;;6271789;22;20593;-90
2022/01/18 05:59:01;;;;;;;20.30;7.43;;;3.70;99.90;;;;;;6272013;22;20061;-90
2022/01/18 06:01:32;;;;;;;17.30;7.23;;;3.70;99.90;;;;;;6275927;22;20087;-90
2022/01/18 06:09:08;;;;;;;24.23;8.27;;;3.70;99.90;;;;;;6276335;22;20006;-89
2022/01/18 06:11:43;;;;;;;18.23;7.07;;;3.70;99.90;;;;;;6274424;22;20003;-90
2022/01/18 06:14:12;;;;;;;23.33;8.10;;;3.60;99.90;;;;;;6276933;22;20049;-90
2022/01/18 06:16:37;;;;;;;22.17;8.37;;;3.60;99.90;;;;;;6275280;22;20003;-90
2022/01/18 06:19:03;;;;;;;18.53;7.53;;;3.60;99.90;;;;;;6275271;22;20004;-90
2022/01/18 06:21:30;;;;;;;24.57;8.27;;;3.60;99.90;;;;;;6274741;22;20015;-91
2022/01/18 06:23:56;;;;;;;16.83;7.93;;;3.50;99.90;;;;;;6275099;22;20011;-90
2022/01/18 06:26:21;;;;;;;17.67;7.97;;;3.60;99.90;;;;;;6276324;22;19995;-88
2022/01/18 06:28:47;;;;;;;19.70;7.90;;;3.60;99.90;;;;;;6273188;22;19996;-88
2022/01/18 06:31:13;;;;;;;22.37;8.20;;;3.50;99.90;;;;;;6273469;22;20004;-87
2022/01/18 06:33:39;;;;;;;21.83;8.07;;;3.60;99.90;;;;;;6273628;22;20008;-87
2022/01/18 06:36:05;;;;;;;24.43;8.00;;;3.60;99.90;;;;;;6273342;22;20058;-87
2022/01/18 06:38:31;;;;;;;22.87;8.57;;;3.50;99.90;;;;;;6273058;22;20014;-86
2022/01/18 06:40:57;;;;;;;23.03;8.17;;;3.60;99.90;;;;;;6271887;22;20008;-85
2022/01/18 06:43:22;;;;;;;22.47;8.17;;;3.50;99.90;;;;;;6272264;22;20003;-86
2022/01/18 06:45:48;;;;;;;19.93;8.63;;;3.50;99.90;;;;;;6273746;22;20363;-87
2022/01/18 06:48:14;;;;;;;21.53;7.93;;;3.50;99.90;;;;;;6277346;22;20317;-87
2022/01/18 06:50:40;;;;;;;21.23;8.80;;;3.50;99.90;;;;;;6276541;22;20077;-87
2022/01/18 06:53:05;;;;;;;24.43;8.63;;;3.40;99.90;;;;;;6274163;22;20509;-87
2022/01/18 06:55:31;;;;;;;22.33;8.77;;;3.50;99.90;;;;;;6279645;22;20026;-87
2022/01/18 06:57:57;;;;;;;25.30;9.43;;;3.40;99.90;;;;;;6285412;22;20004;-88
2022/01/18 07:00:23;;;;;;;21.87;8.53;;;3.40;99.90;;;;;;6283070;22;20338;-87
2022/01/18 07:02:48;;;;;;;23.40;8.70;;;3.40;99.90;;;;;;6275351;22;20449;-87
2022/01/18 07:05:14;;;;;;;18.47;8.57;;;3.40;99.90;;;;;;6276029;22;20042;-86
2022/01/18 07:07:41;;;;;;;19.77;8.93;;;3.30;99.90;;;;;;6279725;22;20000;-87
2022/01/18 07:10:08;;;;;;;26.90;9.80;;;3.30;99.90;;;;;;6273273;22;20012;-87
2022/01/18 07:12:35;;;;;;;23.60;8.83;;;3.40;99.90;;;;;;6273137;22;20038;-86
2022/01/18 07:15:02;;;;;;;23.90;9.60;;;3.30;99.90;;;;;;6272998;22;19999;-87
2022/01/18 07:17:28;;;;;;;21.07;8.60;;;3.30;99.90;;;;;;6271712;22;20039;-86
2022/01/18 07:19:54;;;;;;;22.40;9.03;;;3.40;99.90;;;;;;6271138;22;20027;-85
2022/01/18 07:22:19;;;;;;;18.80;8.60;;;3.30;99.90;;;;;;6270720;22;20535;-87
2022/01/18 07:24:46;;;;;;;20.87;8.37;;;3.30;99.90;;;;;;6275547;22;20049;-87
2022/01/18 07:27:14;;;;;;;18.90;7.90;;;3.30;99.90;;;;;;6279952;22;20031;-86
2022/01/18 07:29:43;;;;;;;23.17;9.17;;;3.40;99.90;;;;;;6282050;22;20003;-86
2022/01/18 07:32:10;;;;;;;19.57;8.23;;;3.30;99.90;;;;;;6282558;22;19999;-86
2022/01/18 07:34:40;;;;;;;19.43;7.90;;;3.20;99.90;;;;;;6279880;22;19999;-87
2022/01/18 07:37:07;;;;;;;21.63;8.50;;;3.20;99.90;;;;;;6276877;22;20003;-86
2022/01/18 07:39:33;;;;;;;22.07;7.70;;;3.20;99.90;;;;;;6277435;22;20011;-87
2022/01/18 07:41:59;;;;;;;25.70;8.97;;;3.20;99.90;;;;;;6248128;22;20291;-86
2022/01/18 07:44:24;;;;;;;20.07;8.47;;;3.10;99.90;;;;;;6274567;22;20024;-87
2022/01/18 07:46:50;;;;;;;26.17;8.60;;;3.10;99.90;;;;;;6273437;22;20062;-87
2022/01/18 07:49:16;;;;;;;21.57;9.07;;;3.10;99.90;;;;;;6274255;22;20071;-87
2022/01/18 07:51:41;;;;;;;18.77;8.27;;;3.10;99.90;;;;;;6265333;22;19996;-86
2022/01/18 07:54:08;;;;;;;26.50;8.40;;;3.10;99.90;;;;;;6272474;22;20004;-87
2022/01/18 07:56:34;;;;;;;22.13;9.43;;;3.10;99.90;;;;;;6271813;22;20008;-87
2022/01/18 07:58:59;;;;;;;22.93;8.57;;;3.20;99.90;;;;;;6270920;22;20076;-88
2022/01/18 08:01:26;;;;;;;18.80;7.87;;;3.20;99.90;;;;;;6271588;22;20086;-87
2022/01/18 08:03:52;;;;;;;20.40;8.07;;;3.30;99.90;;;;;;6271216;22;20007;-87
2022/01/18 08:06:17;;;;;;;21.20;8.97;;;3.40;99.90;;;;;;6272774;22;20003;-86
2022/01/18 08:08:43;;;;;;;19.47;7.10;;;3.40;99.90;;;;;;6270795;22;20414;-88
2022/01/18 08:11:08;;;;;;;19.30;7.87;;;3.50;99.90;;;;;;6271079;22;20619;-87
2022/01/18 08:13:39;;;;;;;19.90;8.20;;;3.60;99.90;;;;;;6270723;22;20012;-88
2022/01/18 08:16:23;;;;;;;20.47;7.90;;;3.70;99.90;;;;;;6265673;22;20086;-88
2022/01/18 08:18:53;;;;;;;20.03;7.33;;;3.70;99.90;;;;;;6270626;22;20036;-88
2022/01/18 08:21:25;;;;;;;23.27;8.43;;;3.70;99.90;;;;;;6273732;22;20004;-88
2022/01/18 08:23:52;;;;;;;17.67;8.57;;;3.70;99.90;;;;;;6276284;22;20014;-86
2022/01/18 08:26:18;;;;;;;21.10;8.80;;;3.80;99.90;;;;;;6277977;22;19999;-86
2022/01/18 08:28:45;;;;;;;18.67;8.07;;;3.90;99.90;;;;;;6269118;22;20513;-87
2022/01/18 08:31:12;;;;;;;21.67;8.70;;;3.90;99.90;;;;;;6274665;22;20075;-88
2022/01/18 08:33:39;;;;;;;26.20;8.30;;;3.90;99.90;;;;;;6276497;22;20003;-88
2022/01/18 08:36:09;;;;;;;18.90;7.80;;;3.90;99.90;;;;;;6249699;22;20385;-89
2022/01/18 08:38:35;;;;;;;21.83;7.77;;;3.90;99.90;;;;;;6277029;22;20007;-88
2022/01/18 08:41:03;;;;;;;20.83;8.30;;;4.00;99.90;;;;;;6275672;22;20061;-89
2022/01/18 08:43:31;;;;;;;18.80;7.53;;;4.00;99.90;;;;;;6276322;22;20032;-89
2022/01/18 08:45:57;;;;;;;18.80;7.90;;;4.00;99.90;;;;;;6278712;22;20070;-88
2022/01/18 08:48:38;;;;;;;22.37;8.40;;;4.00;99.90;;;;;;6273841;22;20000;-89
2022/01/18 08:51:10;;;;;;;17.67;8.00;;;4.10;99.90;;;;;;6274941;22;20452;-89
2022/01/18 08:53:37;;;;;;;20.10;7.97;;;4.20;99.90;;;;;;6277946;22;20007;-88
2022/01/18 08:56:09;;;;;;;23.00;8.23;;;4.20;99.90;;;;;;6276327;22;20016;-89
2022/01/18 08:58:35;;;;;;;12.35;5.30;;;4.40;99.90;;;;;;6277112;22;20441;-88
2022/01/18 09:01:03;;;;;;;20.50;8.10;;;4.40;99.90;;;;;;6275378;22;20083;-90
2022/01/18 09:03:31;;;;;;;21.17;8.80;;;4.40;99.90;;;;;;6275994;22;20425;-88
2022/01/18 09:05:57;;;;;;;18.50;6.77;;;4.30;99.90;;;;;;6277196;22;20062;-89
2022/01/18 09:08:25;;;;;;;14.03;7.17;;;4.30;99.90;;;;;;6277503;22;20452;-89
2022/01/18 09:10:54;;;;;;;14.73;6.83;;;4.30;99.90;;;;;;6275381;22;20011;-88
2022/01/18 09:13:23;;;;;;;20.67;8.30;;;4.30;99.90;;;;;;6250829;22;20090;-88
2022/01/18 09:15:51;;;;;;;18.97;7.30;;;4.30;99.90;;;;;;6276969;22;19996;-89
2022/01/18 09:18:17;;;;;;;17.17;7.87;;;4.30;99.90;;;;;;6277044;22;20049;-89
2022/01/18 09:20:43;;;;;;;17.67;7.17;;;4.30;99.90;;;;;;6275893;22;20014;-89
2022/01/18 09:23:12;;;;;;;14.77;6.80;;;4.30;99.90;;;;;;6275605;22;20007;-89
2022/01/18 09:25:38;;;;;;;15.90;7.07;;;4.40;99.90;;;;;;6277968;22;20071;-89
2022/01/18 09:28:12;;;;;;;20.87;7.27;;;4.50;99.90;;;;;;6276908;22;20343;-89
2022/01/18 09:30:44;;;;;;;13.80;6.30;;;4.50;99.90;;;;;;6277883;22;20075;-89
2022/01/18 09:33:10;;;;;;;18.80;6.35;;;4.40;99.90;;;;;;6250684;22;20426;-87
2022/01/18 09:35:37;;;;;;;16.47;6.90;;;4.40;99.90;;;;;;6277034;22;20000;-90
2022/01/18 09:38:04;;;;;;;17.77;7.17;;;4.30;99.90;;;;;;6275427;22;20004;-89
2022/01/18 09:40:30;;;;;;;15.83;7.63;;;4.20;99.90;;;;;;6273462;22;20146;-87
2022/01/18 09:43:00;;;;;;;14.17;6.67;;;4.20;99.90;;;;;;6276000;22;20000;-86
2022/01/18 09:45:30;;;;;;;16.80;6.30;;;4.20;99.90;;;;;;6274296;22;20438;-88
2022/01/18 09:47:59;;;;;;;16.13;6.57;;;4.10;99.90;;;;;;6271177;22;20003;-89
2022/01/18 09:50:31;;;;;;;14.90;6.57;;;4.20;99.90;;;;;;6248366;22;20010;-87
2022/01/18 09:52:59;;;;;;;18.07;6.53;;;4.20;99.90;;;;;;6274729;22;20023;-87
2022/01/18 09:55:27;;;;;;;20.40;7.30;;;4.40;99.90;;;;;;6276324;22;20027;-89
2022/01/18 09:57:56;;;;;;;18.40;7.10;;;4.60;99.90;;;;;;6277251;22;20421;-89
2022/01/18 10:00:27;;;;;;;12.97;6.17;;;4.80;99.90;;;;;;6274240;22;20442;-87
2022/01/18 10:02:53;;;;;;;15.17;6.03;;;4.90;99.90;;;;;;6274355;22;20014;-89
2022/01/18 10:05:27;;;;;;;15.43;7.20;;;4.90;99.90;;;;;;6275107;22;20026;-89
2022/01/18 10:08:02;;;;;;;15.37;6.63;;;4.90;99.90;;;;;;6274193;22;20004;-88
2022/01/18 10:10:49;;;;;;;15.23;6.53;;;5.00;99.90;;;;;;6274359;22;20346;-89
2022/01/18 10:13:25;;;;;;;15.50;6.70;;;4.90;99.90;;;;;;6272953;22;20007;-88
2022/01/18 10:16:23;;;;;;;15.60;6.60;;;5.00;99.90;;;;;;6274358;22;20318;-89
2022/01/18 10:18:51;;;;;;;12.53;6.20;;;5.10;99.90;;;;;;6274023;22;20004;-89
2022/01/18 10:21:23;;;;;;;20.40;6.07;;;5.10;99.90;;;;;;6273159;22;20011;-89
2022/01/18 10:23:49;;;;;;;12.57;5.47;;;5.20;99.90;;;;;;6275833;22;20000;-89
2022/01/18 10:26:23;;;;;;;12.13;5.30;;;5.10;99.90;;;;;;6249140;22;20000;-88
2022/01/18 10:29:04;;;;;;;11.73;4.97;;;5.10;99.90;;;;;;6273565;22;20000;-88
2022/01/18 10:31:40;;;;;;;10.03;4.10;;;5.00;99.90;;;;;;6274968;22;20000;-89
2022/01/18 10:34:23;;;;;;;11.43;4.10;;;5.10;99.90;;;;;;6274270;22;20042;-89
2022/01/18 10:37:01;;;;;;;11.00;3.80;;;5.00;99.90;;;;;;6272231;22;20198;-89
2022/01/18 10:39:34;;;;;;;12.23;4.23;;;5.10;99.90;;;;;;6274890;22;20031;-89
2022/01/18 10:42:11;;;;;;;10.60;4.03;;;5.00;99.90;;;;;;6275026;22;20003;-89
2022/01/18 10:44:37;;;;;;;9.73;4.10;;;5.00;99.90;;;;;;6274943;22;19999;-88
2022/01/18 10:47:03;;;;;;;10.03;4.07;;;5.10;99.90;;;;;;6273320;22;20049;-89
2022/01/18 10:49:44;;;;;;;9.27;3.77;;;5.20;99.90;;;;;;6272164;22;20430;-89
2022/01/18 10:52:12;;;;;;;12.07;4.13;;;5.10;99.90;;;;;;6274742;22;20000;-88
2022/01/18 10:54:43;;;;;;;10.07;4.17;;;5.10;99.90;;;;;;6273686;22;19999;-89
2022/01/18 10:57:12;;;;;;;9.30;4.43;;;5.20;99.90;;;;;;6275077;22;20003;-89
2022/01/18 10:59:39;;;;;;;10.27;4.83;;;5.10;99.90;;;;;;6273648;22;20053;-88
2022/01/18 11:02:16;;;;;;;9.40;4.27;;;5.10;99.90;;;;;;6273805;22;20046;-89
2022/01/18 11:04:47;;;;;;;9.73;3.50;;;5.20;99.90;;;;;;6273150;22;20003;-88
2022/01/18 11:07:17;;;;;;;14.13;4.23;;;5.20;99.90;;;;;;6274053;22;19996;-87
2022/01/18 11:09:43;;;;;;;10.07;4.03;;;5.30;99.90;;;;;;6246155;22;20000;-88
2022/01/18 11:12:10;;;;;;;11.73;3.93;;;5.50;99.90;;;;;;6289942;22;20004;-87
2022/01/18 11:17:24;;;;;;;11.47;3.53;;;5.70;99.90;;;;;;6267647;22;20023;-89
2022/01/18 11:19:56;;;;;;;8.97;2.87;;;5.80;99.90;;;;;;6247411;22;20003;-90
2022/01/18 11:22:25;;;;;;;9.03;3.53;;;5.80;99.90;;;;;;6247522;22;19999;-90
2022/01/18 11:24:58;;;;;;;8.13;3.50;;;5.80;99.90;;;;;;6247064;22;20007;-90
2022/01/18 11:27:29;;;;;;;8.40;3.70;;;5.80;99.90;;;;;;6271751;22;20000;-90
2022/01/18 11:30:04;;;;;;;10.43;3.97;;;5.70;99.90;;;;;;6272933;22;20003;-90
2022/01/18 11:32:31;;;;;;;10.83;4.17;;;5.60;99.90;;;;;;6274209;22;20004;-90
2022/01/18 11:35:12;;;;;;;10.40;3.43;;;5.70;99.90;;;;;;6274009;22;20043;-90
2022/01/18 11:38:02;;;;;;;9.27;3.33;;;5.80;99.90;;;;;;6273860;22;20468;-90
2022/01/18 11:40:48;;;;;;;6.93;3.30;;;5.80;99.90;;;;;;6273228;22;20007;-90
2022/01/18 11:43:34;;;;;;;8.50;3.20;;;5.80;99.90;;;;;;6273397;22;20461;-90
2022/01/18 11:46:18;;;;;;;9.17;3.27;;;5.80;99.90;;;;;;6273407;22;20027;-90
2022/01/18 11:48:45;;;;;;;14.27;5.23;;;5.80;99.90;;;;;;6247950;22;20061;-90
2022/01/18 11:51:18;;;;;;;16.70;4.80;;;5.60;99.90;;;;;;6272979;22;20000;-91
2022/01/18 11:56:39;;;;;;;14.87;4.27;;;5.50;99.90;;;;;;6261039;22;20003;-89
2022/01/18 11:59:17;;;;;;;10.60;3.50;;;5.40;99.90;;;;;;6273924;22;20338;-90
2022/01/18 12:01:54;;;;;;;19.57;5.60;;;5.40;99.90;;;;;;6272919;22;20031;-90
2022/01/18 12:04:42;;;;;;;10.87;3.60;;;5.40;99.90;;;;;;6273125;22;20007;-90
2022/01/18 12:07:11;;;;;;;16.00;4.83;;;5.40;99.90;;;;;;6272445;22;20004;-89
2022/01/18 12:09:38;;;;;;;13.80;5.00;;;5.30;99.90;;;;;;6272849;22;20078;-89
2022/01/18 12:12:09;;;;;;;11.23;3.70;;;5.20;99.90;;;;;;6272405;22;20004;-89
2022/01/18 12:14:37;;;;;;;11.70;3.87;;;5.20;99.90;;;;;;6273678;22;20003;-88
2022/01/18 12:17:14;;;;;;;10.07;3.80;;;5.20;99.90;;;;;;6272591;22;20012;-89
2022/01/18 12:19:45;;;;;;;9.30;3.10;;;5.20;99.90;;;;;;6273296;22;20030;-87
2022/01/18 12:22:12;;;;;;;8.97;3.50;;;5.10;99.90;;;;;;6274382;22;20011;-89
2022/01/18 12:24:42;;;;;;;8.10;3.67;;;5.10;99.90;;;;;;6274380;22;20014;-89
2022/01/18 12:27:29;;;;;;;7.17;3.00;;;5.00;99.90;;;;;;6276405;22;20011;-88
2022/01/18 12:30:27;;;;;;;7.30;2.97;;;5.00;99.90;;;;;;6274612;22;20007;-88
2022/01/18 12:33:16;;;;;;;8.33;3.17;;;5.00;99.90;;;;;;6274680;22;20000;-88
2022/01/18 12:35:42;;;;;;;9.17;2.93;;;5.00;99.90;;;;;;6274592;22;20004;-89
2022/01/18 12:38:10;;;;;;;6.63;2.40;;;5.10;99.90;;;;;;6274938;22;20078;-88
2022/01/18 12:40:44;;;;;;;7.50;2.73;;;5.20;99.90;;;;;;6274988;22;20410;-89
2022/01/18 13:10:48;;;;;;;9.47;1.87;;;5.90;99.90;;;;;;6224269;22;20609;-88
2022/01/18 13:13:16;;;;;;;6.00;2.00;;;5.60;99.90;;;;;;6273719;22;20007;-89
2022/01/18 13:26:49;;;;;;;3.43;1.17;;;5.20;99.90;;;;;;6275138;22;20073;-88
2022/01/18 13:29:21;;;;;;;4.37;1.47;;;5.20;99.90;;;;;;6274233;22;19996;-89
2022/01/18 13:32:15;;;;;;;5.33;1.67;;;5.10;99.90;;;;;;6275538;22;20434;-88
2022/01/18 13:34:44;;;;;;;3.80;1.47;;;5.10;99.90;;;;;;6246535;22;20018;-89
2022/01/18 13:37:25;;;;;;;8.50;2.00;;;5.20;99.90;;;;;;6274716;22;20008;-89
2022/01/18 13:40:02;;;;;;;7.35;1.85;;;5.20;99.90;;;;;;6274779;22;20029;-88
2022/01/18 13:42:47;;;;;;;5.33;1.33;;;5.10;99.90;;;;;;6273036;22;20011;-88
2022/01/18 13:45:24;;;;;;;3.47;1.30;;;5.10;99.90;;;;;;6274648;22;20500;-88
2022/01/18 13:47:53;;;;;;;6.33;1.47;;;5.00;99.90;;;;;;6274594;22;20044;-87
2022/01/18 13:50:46;;;;;;;3.80;1.30;;;5.10;99.90;;;;;;6273695;22;20030;-88
2022/01/18 13:53:19;;;;;;;7.10;1.67;;;5.20;99.90;;;;;;6249308;22;20011;-88
2022/01/18 13:55:50;;;;;;;7.43;1.57;;;5.50;99.90;;;;;;6275057;22;20010;-90
2022/01/18 13:58:33;;;;;;;4.00;1.50;;;5.60;99.90;;;;;;6273929;22;20079;-89
2022/01/18 14:01:26;;;;;;;6.47;1.30;;;5.80;99.90;;;;;;6274220;22;20438;-89
2022/01/18 14:04:01;;;;;;;5.33;1.53;;;6.00;99.90;;;;;;6247492;22;20004;-89
2022/01/18 14:06:38;;;;;;;5.90;1.17;;;6.20;99.90;;;;;;6275123;22;20369;-90
2022/01/18 14:09:05;;;;;;;3.20;1.30;;;6.10;99.90;;;;;;6270153;22;20004;-88
2022/01/18 14:11:36;;;;;;;2.97;1.20;;;6.10;99.90;;;;;;6276208;22;20012;-89
2022/01/18 14:14:18;;;;;;;3.37;1.50;;;6.10;99.90;;;;;;6276655;22;20049;-89
2022/01/18 14:16:53;;;;;;;3.22;0.80;;;6.10;99.90;;;;;;6273661;22;20011;-89
2022/01/18 14:19:34;;;;;;;3.17;0.90;;;6.00;99.90;;;;;;6273644;22;20010;-89
2022/01/18 14:22:14;;;;;;;3.35;1.02;;;6.00;99.90;;;;;;6273507;22;20394;-90
2022/01/18 14:24:45;;;;;;;2.47;1.20;;;5.90;99.90;;;;;;6273395;22;20012;-89
2022/01/18 14:27:21;;;;;;;4.83;0.90;;;5.90;99.90;;;;;;6274195;22;20004;-90
2022/01/18 14:29:51;;;;;;;3.17;1.07;;;5.90;99.90;;;;;;6273814;22;20010;-90
2022/01/18 14:32:43;;;;;;;4.30;1.40;;;5.80;99.90;;;;;;6274152;22;20449;-89
2022/01/18 14:35:16;;;;;;;5.80;1.35;;;5.80;99.90;;;;;;6271006;22;20004;-90
2022/01/18 14:37:48;;;;;;;3.60;1.20;;;5.80;99.90;;;;;;6274017;22;20004;-88
2022/01/18 14:40:15;;;;;;;4.20;1.05;;;5.70;99.90;;;;;;6273603;22;19996;-88
2022/01/18 14:42:48;;;;;;;4.20;1.13;;;5.60;99.90;;;;;;6273236;22;20003;-90
2022/01/18 14:47:50;;;;;;;6.37;1.20;;;5.40;99.90;;;;;;6276135;22;20082;-89
2022/01/18 14:50:18;;;;;;;4.63;1.00;;;5.40;99.90;;;;;;6274288;22;20072;-88
2022/01/18 14:52:46;;;;;;;3.80;1.00;;;5.30;99.90;;;;;;6273493;22;20322;-89
2022/01/18 14:55:16;;;;;;;4.83;1.10;;;5.30;99.90;;;;;;6273855;22;20008;-90
2022/01/18 14:57:42;;;;;;;4.27;1.03;;;5.20;99.90;;;;;;6272818;22;20098;-89
2022/01/18 15:00:12;;;;;;;3.57;0.90;;;5.10;99.90;;;;;;6273173;22;20012;-89
2022/01/18 15:02:38;;;;;;;3.20;1.20;;;5.10;99.90;;;;;;6291046;22;20012;-89
2022/01/18 15:05:12;;;;;;;4.40;1.00;;;5.00;99.90;;;;;;6299558;22;20140;-89
2022/01/18 15:07:39;;;;;;;5.37;1.53;;;5.00;99.90;;;;;;6284046;22;20007;-90
2022/01/18 15:10:06;;;;;;;4.50;1.30;;;5.00;99.90;;;;;;6274782;22;20714;-89
2022/01/18 15:12:49;;;;;;;4.20;1.13;;;5.00;99.90;;;;;;6278196;22;20008;-90
2022/01/18 15:15:18;;;;;;;;;;;4.90;99.90;;;;;;6275096;22;20031;-89
2022/01/18 15:17:44;;;;;;;5.07;1.10;;;4.90;99.90;;;;;;6274054;22;19903;-89
2022/01/18 15:20:11;;;;;;;4.27;1.23;;;4.90;99.90;;;;;;6273330;22;20473;-89